sensor_id;sensor_type;location;lat;lon;timestamp;pressure;altitude;pressure_sealevel;temperature;humidity
7918;BME280;4004;42.624;23.386;2023-01-29T00:00:08;94177.63;;;0.15;100.00
7918;BME280;4004;42.624;23.386;2023-01-29T00:02:35;94169.59;;;0.20;100.00
7918;BME280;4004;42.624;23.386;2023-01-29T00:05:02;94177.44;;;0.11;100.00
7918;BME280;4004;42.624;23.386;2023-01-29T00:07:31;94178.22;;;0.12;100.00
7918;BME280;4004;42.624;23.386;2023-01-29T00:09:58;94185.38;;;0.11;100.00
7918;BME280;4004;42.624;23.386;2023-01-29T00:12:25;94184.56;;;0.11;100.00
7918;BME280;4004;42.624;23.386;2023-01-29T00:14:51;94187.16;;;0.16;100.00
7918;BME280;4004;42.624;23.386;2023-01-29T00:17:19;94197.72;;;0.16;100.00
7918;BME280;4004;42.624;23.386;2023-01-29T00:19:45;94198.63;;;0.25;100.00
7918;BME280;4004;42.624;23.386;2023-01-29T00:22:12;94210.50;;;0.28;100.00
7918;BME280;4004;42.624;23.386;2023-01-29T00:24:40;94197.34;;;0.23;100.00
7918;BME280;4004;42.624;23.386;2023-01-29T00:27:08;94206.78;;;0.10;100.00
7918;BME280;4004;42.624;23.386;2023-01-29T00:29:35;94208.50;;;0.19;100.00
7918;BME280;4004;42.624;23.386;2023-01-29T00:32:02;94216.50;;;0.14;100.00
7918;BME280;4004;42.624;23.386;2023-01-29T00:34:28;94211.78;;;0.11;100.00
7918;BME280;4004;42.624;23.386;2023-01-29T00:36:55;94200.06;;;0.17;100.00
7918;BME280;4004;42.624;23.386;2023-01-29T00:39:29;94216.66;;;0.23;100.00
7918;BME280;4004;42.624;23.386;2023-01-29T00:42:05;94215.38;;;0.20;100.00
7918;BME280;4004;42.624;23.386;2023-01-29T00:44:49;94215.06;;;0.22;100.00
7918;BME280;4004;42.624;23.386;2023-01-29T00:47:25;94204.56;;;0.17;100.00
7918;BME280;4004;42.624;23.386;2023-01-29T00:49:59;94207.22;;;0.17;100.00
7918;BME280;4004;42.624;23.386;2023-01-29T00:52:26;94212.00;;;0.15;100.00
7918;BME280;4004;42.624;23.386;2023-01-29T00:54:53;94211.00;;;0.11;100.00
7918;BME280;4004;42.624;23.386;2023-01-29T00:57:22;94187.22;;;-0.08;100.00
7918;BME280;4004;42.624;23.386;2023-01-29T00:59:50;94210.34;;;0.19;100.00
7918;BME280;4004;42.624;23.386;2023-01-29T01:02:17;94210.44;;;0.14;100.00
7918;BME280;4004;42.624;23.386;2023-01-29T01:05:01;94195.22;;;0.25;100.00
7918;BME280;4004;42.624;23.386;2023-01-29T01:07:30;94210.00;;;0.26;100.00
7918;BME280;4004;42.624;23.386;2023-01-29T01:09:57;94217.16;;;0.25;100.00
7918;BME280;4004;42.624;23.386;2023-01-29T01:12:43;94211.91;;;0.20;100.00
7918;BME280;4004;42.624;23.386;2023-01-29T01:15:09;94207.94;;;0.23;100.00
7918;BME280;4004;42.624;23.386;2023-01-29T01:17:36;94214.19;;;0.27;100.00
7918;BME280;4004;42.624;23.386;2023-01-29T01:20:04;94211.06;;;0.25;100.00
7918;BME280;4004;42.624;23.386;2023-01-29T01:22:31;94205.94;;;0.14;100.00
7918;BME280;4004;42.624;23.386;2023-01-29T01:24:57;94212.34;;;0.08;100.00
7918;BME280;4004;42.624;23.386;2023-01-29T01:27:24;94192.44;;;0.16;100.00
7918;BME280;4004;42.624;23.386;2023-01-29T01:29:52;94204.66;;;0.12;100.00
7918;BME280;4004;42.624;23.386;2023-01-29T01:32:19;94201.34;;;0.20;100.00
7918;BME280;4004;42.624;23.386;2023-01-29T01:34:45;94208.00;;;0.17;100.00
7918;BME280;4004;42.624;23.386;2023-01-29T01:37:12;94202.19;;;0.15;100.00
7918;BME280;4004;42.624;23.386;2023-01-29T01:39:39;94202.91;;;0.02;100.00
7918;BME280;4004;42.624;23.386;2023-01-29T01:42:10;94202.56;;;-0.10;100.00
7918;BME280;4004;42.624;23.386;2023-01-29T01:44:54;94206.72;;;-0.04;100.00
7918;BME280;4004;42.624;23.386;2023-01-29T01:47:26;94203.91;;;0.06;100.00
7918;BME280;4004;42.624;23.386;2023-01-29T01:49:59;94207.16;;;0.03;100.00
7918;BME280;4004;42.624;23.386;2023-01-29T01:52:28;94213.94;;;-0.10;100.00
7918;BME280;4004;42.624;23.386;2023-01-29T01:54:56;94215.94;;;-0.02;100.00
7918;BME280;4004;42.624;23.386;2023-01-29T01:57:25;94215.84;;;0.04;100.00
7918;BME280;4004;42.624;23.386;2023-01-29T01:59:58;94209.00;;;0.03;100.00
7918;BME280;4004;42.624;23.386;2023-01-29T02:02:34;94216.59;;;0.09;100.00
7918;BME280;4004;42.624;23.386;2023-01-29T02:05:19;94220.44;;;-0.02;100.00
7918;BME280;4004;42.624;23.386;2023-01-29T02:08:03;94216.78;;;-0.06;100.00
7918;BME280;4004;42.624;23.386;2023-01-29T02:10:48;94228.72;;;0.10;100.00
7918;BME280;4004;42.624;23.386;2023-01-29T02:13:15;94228.09;;;0.18;100.00
7918;BME280;4004;42.624;23.386;2023-01-29T02:15:45;94210.13;;;0.15;100.00
7918;BME280;4004;42.624;23.386;2023-01-29T02:18:14;94225.06;;;0.06;100.00
7918;BME280;4004;42.624;23.386;2023-01-29T02:20:46;94222.56;;;0.15;100.00
7918;BME280;4004;42.624;23.386;2023-01-29T02:23:38;94226.94;;;0.25;100.00
7918;BME280;4004;42.624;23.386;2023-01-29T02:26:21;94226.34;;;0.28;100.00
7918;BME280;4004;42.624;23.386;2023-01-29T02:28:57;94231.28;;;0.34;100.00
7918;BME280;4004;42.624;23.386;2023-01-29T02:31:52;94231.88;;;0.12;100.00
7918;BME280;4004;42.624;23.386;2023-01-29T02:34:28;94241.00;;;0.01;100.00
7918;BME280;4004;42.624;23.386;2023-01-29T02:37:12;94234.88;;;0.06;100.00
7918;BME280;4004;42.624;23.386;2023-01-29T02:39:45;94244.84;;;0.09;100.00
7918;BME280;4004;42.624;23.386;2023-01-29T02:42:24;94243.66;;;0.01;100.00
7918;BME280;4004;42.624;23.386;2023-01-29T02:44:58;94241.94;;;-0.09;100.00
7918;BME280;4004;42.624;23.386;2023-01-29T02:47:31;94245.13;;;-0.12;100.00
7918;BME280;4004;42.624;23.386;2023-01-29T02:50:05;94257.91;;;-0.19;100.00
7918;BME280;4004;42.624;23.386;2023-01-29T02:52:39;94252.22;;;-0.07;100.00
7918;BME280;4004;42.624;23.386;2023-01-29T02:55:16;94247.66;;;-0.02;100.00
7918;BME280;4004;42.624;23.386;2023-01-29T02:57:46;94249.53;;;-0.02;100.00
7918;BME280;4004;42.624;23.386;2023-01-29T03:00:18;94245.00;;;-0.02;100.00
7918;BME280;4004;42.624;23.386;2023-01-29T03:02:48;94257.06;;;-0.14;100.00
7918;BME280;4004;42.624;23.386;2023-01-29T03:05:25;94249.22;;;-0.19;100.00
7918;BME280;4004;42.624;23.386;2023-01-29T03:07:57;94248.44;;;-0.20;100.00
7918;BME280;4004;42.624;23.386;2023-01-29T03:10:29;94245.84;;;-0.25;100.00
7918;BME280;4004;42.624;23.386;2023-01-29T03:13:01;94251.78;;;-0.14;100.00
7918;BME280;4004;42.624;23.386;2023-01-29T03:15:37;94251.91;;;-0.25;100.00
7918;BME280;4004;42.624;23.386;2023-01-29T03:18:09;94261.19;;;-0.27;100.00
7918;BME280;4004;42.624;23.386;2023-01-29T03:20:41;94260.28;;;-0.17;100.00
7918;BME280;4004;42.624;23.386;2023-01-29T03:23:15;94252.63;;;-0.19;100.00
7918;BME280;4004;42.624;23.386;2023-01-29T03:25:53;94263.94;;;-0.13;100.00
7918;BME280;4004;42.624;23.386;2023-01-29T03:28:42;94258.69;;;-0.18;100.00
7918;BME280;4004;42.624;23.386;2023-01-29T03:31:28;94267.31;;;-0.32;100.00
7918;BME280;4004;42.624;23.386;2023-01-29T03:34:16;94262.34;;;-0.14;100.00
7918;BME280;4004;42.624;23.386;2023-01-29T03:36:51;94260.44;;;-0.09;100.00
7918;BME280;4004;42.624;23.386;2023-01-29T03:39:21;94258.78;;;-0.05;100.00
7918;BME280;4004;42.624;23.386;2023-01-29T03:41:53;94256.13;;;-0.05;100.00
7918;BME280;4004;42.624;23.386;2023-01-29T03:44:27;94264.13;;;-0.10;100.00
7918;BME280;4004;42.624;23.386;2023-01-29T03:47:02;94262.28;;;-0.09;100.00
7918;BME280;4004;42.624;23.386;2023-01-29T03:49:37;94256.78;;;-0.13;100.00
7918;BME280;4004;42.624;23.386;2023-01-29T03:52:16;94259.34;;;-0.08;100.00
7918;BME280;4004;42.624;23.386;2023-01-29T03:54:53;94257.56;;;-0.12;100.00
7918;BME280;4004;42.624;23.386;2023-01-29T03:57:30;94272.22;;;-0.01;100.00
7918;BME280;4004;42.624;23.386;2023-01-29T04:00:05;94264.06;;;-0.05;100.00
7918;BME280;4004;42.624;23.386;2023-01-29T04:02:40;94259.84;;;-0.06;100.00
7918;BME280;4004;42.624;23.386;2023-01-29T04:05:12;94266.50;;;-0.08;100.00
7918;BME280;4004;42.624;23.386;2023-01-29T04:07:41;94263.44;;;0.04;100.00
7918;BME280;4004;42.624;23.386;2023-01-29T04:10:12;94268.72;;;0.04;100.00
7918;BME280;4004;42.624;23.386;2023-01-29T04:12:45;94263.44;;;0.04;100.00
7918;BME280;4004;42.624;23.386;2023-01-29T04:15:15;94270.31;;;0.05;100.00
7918;BME280;4004;42.624;23.386;2023-01-29T04:17:48;94265.06;;;-0.01;100.00
7918;BME280;4004;42.624;23.386;2023-01-29T04:20:16;94275.59;;;0.05;100.00
7918;BME280;4004;42.624;23.386;2023-01-29T04:22:44;94272.38;;;0.08;100.00
7918;BME280;4004;42.624;23.386;2023-01-29T04:25:15;94276.28;;;-0.09;100.00
7918;BME280;4004;42.624;23.386;2023-01-29T04:27:46;94270.84;;;-0.17;100.00
7918;BME280;4004;42.624;23.386;2023-01-29T04:30:22;94278.78;;;-0.17;100.00
7918;BME280;4004;42.624;23.386;2023-01-29T04:33:03;94281.22;;;-0.02;100.00
7918;BME280;4004;42.624;23.386;2023-01-29T04:35:39;94277.59;;;-0.06;100.00
7918;BME280;4004;42.624;23.386;2023-01-29T04:38:11;94289.13;;;-0.21;100.00
7918;BME280;4004;42.624;23.386;2023-01-29T04:40:50;94278.13;;;-0.09;100.00
7918;BME280;4004;42.624;23.386;2023-01-29T04:43:27;94277.72;;;0.03;100.00
7918;BME280;4004;42.624;23.386;2023-01-29T04:46:08;94275.78;;;0.08;100.00
7918;BME280;4004;42.624;23.386;2023-01-29T04:48:45;94282.13;;;-0.12;100.00
7918;BME280;4004;42.624;23.386;2023-01-29T04:51:20;94284.56;;;-0.15;100.00
7918;BME280;4004;42.624;23.386;2023-01-29T04:53:52;94285.56;;;-0.11;100.00
7918;BME280;4004;42.624;23.386;2023-01-29T04:56:27;94279.56;;;-0.17;100.00
7918;BME280;4004;42.624;23.386;2023-01-29T04:58:56;94282.44;;;-0.13;100.00
7918;BME280;4004;42.624;23.386;2023-01-29T05:01:27;94283.56;;;-0.01;100.00
7918;BME280;4004;42.624;23.386;2023-01-29T05:04:01;94275.09;;;0.03;100.00
7918;BME280;4004;42.624;23.386;2023-01-29T05:06:30;94286.72;;;0.02;100.00
7918;BME280;4004;42.624;23.386;2023-01-29T05:08:59;94283.56;;;-0.01;100.00
7918;BME280;4004;42.624;23.386;2023-01-29T05:11:27;94291.34;;;-0.09;100.00
7918;BME280;4004;42.624;23.386;2023-01-29T05:13:57;94297.22;;;-0.12;100.00
7918;BME280;4004;42.624;23.386;2023-01-29T05:16:26;94292.34;;;-0.05;100.00
7918;BME280;4004;42.624;23.386;2023-01-29T05:18:54;94297.09;;;-0.02;100.00
7918;BME280;4004;42.624;23.386;2023-01-29T05:21:22;94300.59;;;-0.07;100.00
7918;BME280;4004;42.624;23.386;2023-01-29T05:24:05;94300.06;;;-0.09;100.00
7918;BME280;4004;42.624;23.386;2023-01-29T05:26:32;94297.59;;;0.00;100.00
7918;BME280;4004;42.624;23.386;2023-01-29T05:29:17;94302.06;;;-0.01;100.00
7918;BME280;4004;42.624;23.386;2023-01-29T05:31:44;94303.59;;;0.06;100.00
7918;BME280;4004;42.624;23.386;2023-01-29T05:34:10;94303.66;;;0.01;100.00
7918;BME280;4004;42.624;23.386;2023-01-29T05:36:39;94317.16;;;-0.01;100.00
7918;BME280;4004;42.624;23.386;2023-01-29T05:39:05;94307.25;;;0.10;100.00
7918;BME280;4004;42.624;23.386;2023-01-29T05:41:32;94301.44;;;0.08;100.00
7918;BME280;4004;42.624;23.386;2023-01-29T05:43:59;94309.44;;;0.03;100.00
7918;BME280;4004;42.624;23.386;2023-01-29T05:46:25;94310.00;;;-0.01;100.00
7918;BME280;4004;42.624;23.386;2023-01-29T05:48:52;94314.84;;;-0.08;100.00
7918;BME280;4004;42.624;23.386;2023-01-29T05:51:19;94317.22;;;-0.06;100.00
7918;BME280;4004;42.624;23.386;2023-01-29T05:53:47;94319.00;;;-0.02;100.00
7918;BME280;4004;42.624;23.386;2023-01-29T05:56:14;94312.94;;;-0.02;100.00
7918;BME280;4004;42.624;23.386;2023-01-29T05:58:41;94323.53;;;-0.02;100.00
7918;BME280;4004;42.624;23.386;2023-01-29T06:01:09;94323.19;;;-0.19;100.00
7918;BME280;4004;42.624;23.386;2023-01-29T06:03:36;94321.59;;;-0.21;100.00
7918;BME280;4004;42.624;23.386;2023-01-29T06:06:03;94329.69;;;-0.12;100.00
7918;BME280;4004;42.624;23.386;2023-01-29T06:08:29;94334.09;;;-0.02;100.00
7918;BME280;4004;42.624;23.386;2023-01-29T06:10:57;94331.59;;;0.07;100.00
7918;BME280;4004;42.624;23.386;2023-01-29T06:13:24;94337.69;;;0.07;100.00
7918;BME280;4004;42.624;23.386;2023-01-29T06:15:51;94338.72;;;0.06;100.00
7918;BME280;4004;42.624;23.386;2023-01-29T06:18:18;94348.53;;;0.06;100.00
7918;BME280;4004;42.624;23.386;2023-01-29T06:20:45;94353.81;;;0.06;100.00
7918;BME280;4004;42.624;23.386;2023-01-29T06:23:11;94356.84;;;0.18;100.00
7918;BME280;4004;42.624;23.386;2023-01-29T06:25:38;94361.97;;;0.09;100.00
7918;BME280;4004;42.624;23.386;2023-01-29T06:28:06;94360.13;;;0.10;100.00
7918;BME280;4004;42.624;23.386;2023-01-29T06:30:33;94361.91;;;0.14;100.00
7918;BME280;4004;42.624;23.386;2023-01-29T06:33:00;94368.91;;;0.24;100.00
7918;BME280;4004;42.624;23.386;2023-01-29T06:35:27;94372.50;;;0.33;100.00
7918;BME280;4004;42.624;23.386;2023-01-29T06:37:55;94368.53;;;0.36;100.00
7918;BME280;4004;42.624;23.386;2023-01-29T06:40:21;94374.94;;;0.30;100.00
7918;BME280;4004;42.624;23.386;2023-01-29T06:42:48;94374.16;;;0.29;100.00
7918;BME280;4004;42.624;23.386;2023-01-29T06:45:16;94375.44;;;0.32;100.00
7918;BME280;4004;42.624;23.386;2023-01-29T06:47:43;94377.78;;;0.33;100.00
7918;BME280;4004;42.624;23.386;2023-01-29T06:50:10;94387.03;;;0.36;100.00
7918;BME280;4004;42.624;23.386;2023-01-29T06:52:37;94385.03;;;0.47;100.00
7918;BME280;4004;42.624;23.386;2023-01-29T06:55:05;94382.84;;;0.54;100.00
7918;BME280;4004;42.624;23.386;2023-01-29T06:57:31;94396.91;;;0.49;100.00
7918;BME280;4004;42.624;23.386;2023-01-29T06:59:58;94384.97;;;0.52;100.00
7918;BME280;4004;42.624;23.386;2023-01-29T07:02:26;94381.81;;;0.69;100.00
7918;BME280;4004;42.624;23.386;2023-01-29T07:04:53;94379.19;;;0.69;100.00
7918;BME280;4004;42.624;23.386;2023-01-29T07:07:19;94378.66;;;0.67;100.00
7918;BME280;4004;42.624;23.386;2023-01-29T07:09:46;94389.41;;;0.75;100.00
7918;BME280;4004;42.624;23.386;2023-01-29T07:12:13;94390.78;;;0.92;100.00
7918;BME280;4004;42.624;23.386;2023-01-29T07:14:39;94397.78;;;1.01;100.00
7918;BME280;4004;42.624;23.386;2023-01-29T07:17:06;94395.75;;;0.93;100.00
7918;BME280;4004;42.624;23.386;2023-01-29T07:19:34;94392.91;;;1.09;100.00
7918;BME280;4004;42.624;23.386;2023-01-29T07:22:01;94390.69;;;0.97;100.00
7918;BME280;4004;42.624;23.386;2023-01-29T07:24:28;94404.00;;;0.92;100.00
7918;BME280;4004;42.624;23.386;2023-01-29T07:26:55;94401.06;;;0.93;100.00
7918;BME280;4004;42.624;23.386;2023-01-29T07:29:21;94402.50;;;0.86;100.00
7918;BME280;4004;42.624;23.386;2023-01-29T07:31:48;94411.03;;;0.82;100.00
7918;BME280;4004;42.624;23.386;2023-01-29T07:34:15;94408.44;;;0.77;100.00
7918;BME280;4004;42.624;23.386;2023-01-29T07:36:43;94407.16;;;0.94;100.00
7918;BME280;4004;42.624;23.386;2023-01-29T07:39:10;94411.94;;;0.92;100.00
7918;BME280;4004;42.624;23.386;2023-01-29T07:41:36;94409.22;;;0.97;100.00
7918;BME280;4004;42.624;23.386;2023-01-29T07:44:03;94410.44;;;0.86;100.00
7918;BME280;4004;42.624;23.386;2023-01-29T07:46:30;94399.06;;;0.85;100.00
7918;BME280;4004;42.624;23.386;2023-01-29T07:48:57;94414.66;;;0.87;100.00
7918;BME280;4004;42.624;23.386;2023-01-29T07:51:24;94416.81;;;0.85;100.00
7918;BME280;4004;42.624;23.386;2023-01-29T07:53:52;94426.47;;;0.94;100.00
7918;BME280;4004;42.624;23.386;2023-01-29T07:56:18;94423.91;;;0.89;100.00
7918;BME280;4004;42.624;23.386;2023-01-29T07:58:45;94423.88;;;1.08;100.00
7918;BME280;4004;42.624;23.386;2023-01-29T08:01:12;94419.59;;;1.12;100.00
7918;BME280;4004;42.624;23.386;2023-01-29T08:03:39;94426.91;;;1.20;100.00
7918;BME280;4004;42.624;23.386;2023-01-29T08:06:06;94424.38;;;1.10;100.00
7918;BME280;4004;42.624;23.386;2023-01-29T08:08:33;94431.41;;;1.01;100.00
7918;BME280;4004;42.624;23.386;2023-01-29T08:11:02;94430.25;;;0.88;100.00
7918;BME280;4004;42.624;23.386;2023-01-29T08:13:30;94421.53;;;0.88;100.00
7918;BME280;4004;42.624;23.386;2023-01-29T08:15:58;94436.19;;;0.99;100.00
7918;BME280;4004;42.624;23.386;2023-01-29T08:18:26;94436.34;;;1.08;100.00
7918;BME280;4004;42.624;23.386;2023-01-29T08:20:57;94443.50;;;1.07;100.00
7918;BME280;4004;42.624;23.386;2023-01-29T08:23:23;94444.94;;;1.18;100.00
7918;BME280;4004;42.624;23.386;2023-01-29T08:25:50;94440.06;;;1.26;100.00
7918;BME280;4004;42.624;23.386;2023-01-29T08:28:18;94440.78;;;1.12;100.00
7918;BME280;4004;42.624;23.386;2023-01-29T08:30:45;94439.13;;;1.16;100.00
7918;BME280;4004;42.624;23.386;2023-01-29T08:33:12;94430.41;;;1.16;100.00
7918;BME280;4004;42.624;23.386;2023-01-29T08:35:38;94444.78;;;1.10;100.00
7918;BME280;4004;42.624;23.386;2023-01-29T08:38:06;94440.91;;;1.21;100.00
7918;BME280;4004;42.624;23.386;2023-01-29T08:40:33;94438.69;;;1.28;100.00
7918;BME280;4004;42.624;23.386;2023-01-29T08:43:01;94445.56;;;1.29;100.00
7918;BME280;4004;42.624;23.386;2023-01-29T08:45:30;94444.22;;;1.13;100.00
7918;BME280;4004;42.624;23.386;2023-01-29T08:47:58;94442.84;;;1.15;100.00
7918;BME280;4004;42.624;23.386;2023-01-29T08:50:25;94452.16;;;1.13;100.00
7918;BME280;4004;42.624;23.386;2023-01-29T08:52:56;94458.50;;;1.31;100.00
7918;BME280;4004;42.624;23.386;2023-01-29T08:55:23;94456.00;;;1.39;100.00
7918;BME280;4004;42.624;23.386;2023-01-29T08:57:50;94463.22;;;1.53;100.00
7918;BME280;4004;42.624;23.386;2023-01-29T09:00:17;94472.81;;;1.49;100.00
7918;BME280;4004;42.624;23.386;2023-01-29T09:02:45;94472.25;;;1.52;100.00
7918;BME280;4004;42.624;23.386;2023-01-29T09:05:12;94469.03;;;1.36;100.00
7918;BME280;4004;42.624;23.386;2023-01-29T09:07:39;94472.06;;;1.29;100.00
7918;BME280;4004;42.624;23.386;2023-01-29T09:10:06;94468.75;;;1.18;100.00
7918;BME280;4004;42.624;23.386;2023-01-29T09:12:33;94472.13;;;1.05;100.00
7918;BME280;4004;42.624;23.386;2023-01-29T09:15:00;94470.75;;;1.08;100.00
7918;BME280;4004;42.624;23.386;2023-01-29T09:17:26;94461.94;;;0.93;100.00
7918;BME280;4004;42.624;23.386;2023-01-29T09:19:54;94472.19;;;1.00;100.00
7918;BME280;4004;42.624;23.386;2023-01-29T09:22:21;94472.06;;;1.10;100.00
7918;BME280;4004;42.624;23.386;2023-01-29T09:24:48;94471.91;;;1.20;100.00
7918;BME280;4004;42.624;23.386;2023-01-29T09:27:14;94461.25;;;1.26;100.00
7918;BME280;4004;42.624;23.386;2023-01-29T09:29:41;94460.50;;;1.20;100.00
7918;BME280;4004;42.624;23.386;2023-01-29T09:32:08;94464.03;;;1.15;100.00
7918;BME280;4004;42.624;23.386;2023-01-29T09:34:35;94462.25;;;1.30;100.00
7918;BME280;4004;42.624;23.386;2023-01-29T09:37:03;94458.81;;;1.29;100.00
7918;BME280;4004;42.624;23.386;2023-01-29T09:39:29;94462.31;;;1.24;100.00
7918;BME280;4004;42.624;23.386;2023-01-29T09:42:01;94461.97;;;1.12;100.00
7918;BME280;4004;42.624;23.386;2023-01-29T09:44:46;94459.91;;;1.42;100.00
7918;BME280;4004;42.624;23.386;2023-01-29T09:47:16;94444.53;;;1.44;100.00
7918;BME280;4004;42.624;23.386;2023-01-29T09:49:46;94457.72;;;1.30;100.00
7918;BME280;4004;42.624;23.386;2023-01-29T09:52:19;94456.53;;;1.22;100.00
7918;BME280;4004;42.624;23.386;2023-01-29T09:54:53;94456.03;;;1.20;100.00
7918;BME280;4004;42.624;23.386;2023-01-29T09:57:24;94448.50;;;1.28;100.00
7918;BME280;4004;42.624;23.386;2023-01-29T09:59:53;94447.50;;;1.23;100.00
7918;BME280;4004;42.624;23.386;2023-01-29T10:02:45;94448.50;;;1.28;100.00
7918;BME280;4004;42.624;23.386;2023-01-29T10:08:25;94448.31;;;1.38;100.00
7918;BME280;4004;42.624;23.386;2023-01-29T10:11:00;94442.13;;;1.29;100.00
7918;BME280;4004;42.624;23.386;2023-01-29T10:13:41;94442.09;;;1.48;100.00
7918;BME280;4004;42.624;23.386;2023-01-29T10:16:20;94443.91;;;1.33;100.00
7918;BME280;4004;42.624;23.386;2023-01-29T10:22:08;94432.59;;;1.28;100.00
7918;BME280;4004;42.624;23.386;2023-01-29T10:24:47;94436.66;;;1.39;100.00
7918;BME280;4004;42.624;23.386;2023-01-29T10:27:18;94433.03;;;1.35;100.00
7918;BME280;4004;42.624;23.386;2023-01-29T10:29:47;94418.13;;;1.39;100.00
7918;BME280;4004;42.624;23.386;2023-01-29T10:32:20;94426.84;;;1.39;100.00
7918;BME280;4004;42.624;23.386;2023-01-29T10:34:49;94420.03;;;1.52;100.00
7918;BME280;4004;42.624;23.386;2023-01-29T10:37:19;94425.69;;;1.45;100.00
7918;BME280;4004;42.624;23.386;2023-01-29T10:39:50;94422.06;;;1.41;100.00
7918;BME280;4004;42.624;23.386;2023-01-29T10:42:27;94422.47;;;1.49;100.00
7918;BME280;4004;42.624;23.386;2023-01-29T10:45:06;94409.31;;;1.43;100.00
7918;BME280;4004;42.624;23.386;2023-01-29T10:47:55;94423.28;;;1.49;100.00
7918;BME280;4004;42.624;23.386;2023-01-29T10:50:47;94420.13;;;1.47;100.00
7918;BME280;4004;42.624;23.386;2023-01-29T10:53:32;94420.03;;;1.52;100.00
7918;BME280;4004;42.624;23.386;2023-01-29T10:56:13;94407.94;;;1.46;100.00
7918;BME280;4004;42.624;23.386;2023-01-29T10:58:48;94409.53;;;1.47;100.00
7918;BME280;4004;42.624;23.386;2023-01-29T11:01:16;94408.59;;;1.38;100.00
7918;BME280;4004;42.624;23.386;2023-01-29T11:03:43;94403.38;;;1.33;100.00
7918;BME280;4004;42.624;23.386;2023-01-29T11:06:15;94407.44;;;1.11;100.00
7918;BME280;4004;42.624;23.386;2023-01-29T11:08:50;94405.25;;;1.13;100.00
7918;BME280;4004;42.624;23.386;2023-01-29T11:11:32;94409.00;;;1.12;100.00
7918;BME280;4004;42.624;23.386;2023-01-29T11:14:02;94402.59;;;1.32;100.00
7918;BME280;4004;42.624;23.386;2023-01-29T11:16:40;94400.22;;;1.31;100.00
7918;BME280;4004;42.624;23.386;2023-01-29T11:19:07;94398.84;;;1.52;100.00
7918;BME280;4004;42.624;23.386;2023-01-29T11:21:50;94395.16;;;1.67;100.00
7918;BME280;4004;42.624;23.386;2023-01-29T11:24:18;94399.13;;;1.64;100.00
7918;BME280;4004;42.624;23.386;2023-01-29T11:26:48;94394.53;;;1.56;100.00
7918;BME280;4004;42.624;23.386;2023-01-29T11:29:37;94389.47;;;1.74;100.00
7918;BME280;4004;42.624;23.386;2023-01-29T11:32:06;94386.19;;;1.63;100.00
7918;BME280;4004;42.624;23.386;2023-01-29T11:34:34;94388.16;;;1.71;100.00
7918;BME280;4004;42.624;23.386;2023-01-29T11:37:02;94385.22;;;1.73;100.00
7918;BME280;4004;42.624;23.386;2023-01-29T11:39:30;94386.00;;;1.73;100.00
7918;BME280;4004;42.624;23.386;2023-01-29T11:41:59;94373.75;;;1.77;100.00
7918;BME280;4004;42.624;23.386;2023-01-29T11:44:30;94364.94;;;1.96;100.00
7918;BME280;4004;42.624;23.386;2023-01-29T11:47:10;94363.84;;;2.11;100.00
7918;BME280;4004;42.624;23.386;2023-01-29T11:49:38;94361.09;;;2.16;100.00
7918;BME280;4004;42.624;23.386;2023-01-29T11:52:09;94367.56;;;2.37;100.00
7918;BME280;4004;42.624;23.386;2023-01-29T11:54:39;94372.38;;;2.49;100.00
7918;BME280;4004;42.624;23.386;2023-01-29T11:57:25;94365.56;;;2.57;100.00
7918;BME280;4004;42.624;23.386;2023-01-29T11:59:54;94372.63;;;2.61;100.00
7918;BME280;4004;42.624;23.386;2023-01-29T12:02:27;94370.66;;;2.67;100.00
7918;BME280;4004;42.624;23.386;2023-01-29T12:04:58;94369.72;;;2.49;100.00
7918;BME280;4004;42.624;23.386;2023-01-29T12:07:27;94368.81;;;2.54;100.00
7918;BME280;4004;42.624;23.386;2023-01-29T12:09:56;94364.31;;;2.40;100.00
7918;BME280;4004;42.624;23.386;2023-01-29T12:12:42;94355.56;;;2.40;100.00
7918;BME280;4004;42.624;23.386;2023-01-29T12:15:17;94360.97;;;2.35;100.00
7918;BME280;4004;42.624;23.386;2023-01-29T12:17:53;94364.69;;;2.47;100.00
7918;BME280;4004;42.624;23.386;2023-01-29T12:20:25;94359.06;;;2.63;100.00
7918;BME280;4004;42.624;23.386;2023-01-29T12:22:59;94356.22;;;2.59;100.00
7918;BME280;4004;42.624;23.386;2023-01-29T12:25:35;94357.75;;;2.74;100.00
7918;BME280;4004;42.624;23.386;2023-01-29T12:28:09;94360.66;;;2.86;100.00
7918;BME280;4004;42.624;23.386;2023-01-29T12:30:49;94362.53;;;2.49;100.00
7918;BME280;4004;42.624;23.386;2023-01-29T12:33:25;94364.41;;;2.49;100.00
7918;BME280;4004;42.624;23.386;2023-01-29T12:35:56;94369.91;;;2.53;100.00
7918;BME280;4004;42.624;23.386;2023-01-29T12:38:27;94368.44;;;2.46;100.00
7918;BME280;4004;42.624;23.386;2023-01-29T12:40:57;94368.72;;;2.59;100.00
7918;BME280;4004;42.624;23.386;2023-01-29T12:43:30;94369.53;;;2.45;100.00
7918;BME280;4004;42.624;23.386;2023-01-29T12:46:00;94369.13;;;2.52;100.00
7918;BME280;4004;42.624;23.386;2023-01-29T12:48:31;94363.38;;;2.22;100.00
7918;BME280;4004;42.624;23.386;2023-01-29T12:51:05;94363.66;;;2.21;100.00
7918;BME280;4004;42.624;23.386;2023-01-29T12:53:37;94357.66;;;2.29;100.00
7918;BME280;4004;42.624;23.386;2023-01-29T12:56:10;94365.41;;;2.39;100.00
7918;BME280;4004;42.624;23.386;2023-01-29T12:58:42;94359.47;;;2.56;100.00
7918;BME280;4004;42.624;23.386;2023-01-29T13:01:14;94367.47;;;2.42;100.00
7918;BME280;4004;42.624;23.386;2023-01-29T13:03:48;94369.63;;;2.13;100.00
7918;BME280;4004;42.624;23.386;2023-01-29T13:06:19;94369.06;;;2.16;100.00
7918;BME280;4004;42.624;23.386;2023-01-29T13:08:50;94365.81;;;2.19;100.00
7918;BME280;4004;42.624;23.386;2023-01-29T13:11:22;94366.00;;;2.22;100.00
7918;BME280;4004;42.624;23.386;2023-01-29T13:13:56;94365.41;;;2.39;100.00
7918;BME280;4004;42.624;23.386;2023-01-29T13:16:27;94359.19;;;2.44;100.00
7918;BME280;4004;42.624;23.386;2023-01-29T13:18:57;94354.78;;;2.39;100.00
7918;BME280;4004;42.624;23.386;2023-01-29T13:21:28;94330.34;;;2.15;100.00
7918;BME280;4004;42.624;23.386;2023-01-29T13:23:59;94355.34;;;2.50;100.00
7918;BME280;4004;42.624;23.386;2023-01-29T13:26:27;94360.13;;;2.62;100.00
7918;BME280;4004;42.624;23.386;2023-01-29T13:28:57;94365.59;;;2.79;100.00
7918;BME280;4004;42.624;23.386;2023-01-29T13:31:27;94364.75;;;2.70;100.00
7918;BME280;4004;42.624;23.386;2023-01-29T13:34:03;94368.25;;;2.79;99.96